Time;durP1;ratioP1;P1;durP2;ratioP2;P2;SDS_P1;SDS_P2;PMS_P1;PMS_P2;Temp;Humidity;BMP_temperature;BMP_pressure;BME280_temperature;BME280_humidity;BME280_pressure;Samples;Min_cycle;Max_cycle;Signal;HPM_P1;HPM_P2
2021/12/26 00:00:33;;;;;;;7.68;2.80;;;;;;;;;;5007272;28;20057;-82
2021/12/26 00:02:59;;;;;;;5.25;2.28;;;;;;;;;;5004822;28;20042;-82
2021/12/26 00:05:27;;;;;;;6.15;2.38;;;;;;;;;;5015547;28;20053;-82
2021/12/26 00:07:53;;;;;;;2.78;2.10;;;;;;;;;;5020585;28;20080;-82
2021/12/26 00:10:21;;;;;;;4.88;2.30;;;;;;;;;;5006067;28;20065;-83
2021/12/26 00:12:47;;;;;;;2.65;1.73;;;;;;;;;;5006800;28;20049;-83
2021/12/26 00:15:14;;;;;;;4.10;2.85;;;;;;;;;;5009659;28;20034;-82
2021/12/26 00:17:40;;;;;;;2.85;1.60;;;;;;;;;;5009821;28;20088;-82
2021/12/26 00:20:07;;;;;;;4.35;1.67;;;;;;;;;;5012193;28;20042;-83
2021/12/26 00:22:33;;;;;;;2.28;1.65;;;;;;;;;;5009993;28;20129;-82
2021/12/26 00:25:01;;;;;;;4.18;1.80;;;;;;;;;;5013177;28;20460;-82
2021/12/26 00:27:27;;;;;;;4.63;2.40;;;;;;;;;;4990440;28;20042;-82
2021/12/26 00:29:54;;;;;;;3.38;2.15;;;;;;;;;;5016062;28;20084;-82
2021/12/26 00:32:20;;;;;;;6.18;2.00;;;;;;;;;;5012836;28;20553;-81
2021/12/26 00:34:50;;;;;;;5.55;2.30;;;;;;;;;;5006571;28;20057;-81
2021/12/26 00:37:17;;;;;;;4.28;2.05;;;;;;;;;;5006681;28;20046;-81
2021/12/26 00:39:43;;;;;;;4.65;2.47;;;;;;;;;;5013189;28;20034;-81
2021/12/26 00:42:09;;;;;;;6.07;2.13;;;;;;;;;;4989726;28;20029;-82
2021/12/26 00:44:39;;;;;;;4.97;2.10;;;;;;;;;;5020429;28;20456;-81
2021/12/26 00:47:09;;;;;;;3.83;2.10;;;;;;;;;;4967956;28;20073;-82
2021/12/26 00:49:36;;;;;;;5.18;2.00;;;;;;;;;;4992934;28;20100;-81
2021/12/26 00:52:08;;;;;;;6.38;3.08;;;;;;;;;;4990271;28;20040;-82
2021/12/26 00:54:35;;;;;;;5.82;2.17;;;;;;;;;;5001603;28;20433;-82
2021/12/26 00:57:01;;;;;;;3.05;2.08;;;;;;;;;;4998473;28;20559;-82
2021/12/26 00:59:27;;;;;;;6.05;2.30;;;;;;;;;;4999509;28;20041;-82
2021/12/26 01:01:54;;;;;;;6.30;2.58;;;;;;;;;;4997436;28;20380;-82
2021/12/26 01:04:21;;;;;;;2.75;1.90;;;;;;;;;;5011616;28;20045;-82
2021/12/26 01:06:47;;;;;;;4.00;2.42;;;;;;;;;;5007229;28;20160;-82
2021/12/26 01:09:19;;;;;;;6.88;2.53;;;;;;;;;;5008995;28;20041;-82
2021/12/26 01:11:50;;;;;;;4.63;2.72;;;;;;;;;;5005102;28;20100;-82
2021/12/26 01:14:23;;;;;;;4.75;2.25;;;;;;;;;;5018884;28;20052;-82
2021/12/26 01:16:50;;;;;;;4.25;2.58;;;;;;;;;;5024992;28;20057;-82
2021/12/26 01:19:19;;;;;;;6.65;2.30;;;;;;;;;;5009546;28;20042;-83
2021/12/26 01:21:45;;;;;;;5.50;2.45;;;;;;;;;;5012144;28;20452;-82
2021/12/26 01:24:12;;;;;;;4.85;2.65;;;;;;;;;;5015772;28;20038;-83
2021/12/26 01:26:39;;;;;;;7.07;2.63;;;;;;;;;;5009776;28;20541;-82
2021/12/26 01:29:06;;;;;;;6.53;2.40;;;;;;;;;;5016361;28;20050;-82
2021/12/26 01:31:32;;;;;;;4.97;2.60;;;;;;;;;;5011841;28;20038;-83
2021/12/26 01:34:00;;;;;;;7.05;2.40;;;;;;;;;;5015576;28;20405;-84
2021/12/26 01:36:27;;;;;;;8.77;2.22;;;;;;;;;;5014598;28;20057;-84
2021/12/26 01:38:56;;;;;;;4.30;2.20;;;;;;;;;;5010522;28;20457;-82
2021/12/26 01:41:22;;;;;;;2.70;1.60;;;;;;;;;;5014836;28;20038;-82
2021/12/26 01:43:48;;;;;;;2.50;1.50;;;;;;;;;;5011056;28;20054;-82
2021/12/26 01:46:16;;;;;;;3.50;1.88;;;;;;;;;;5019294;28;20041;-82
2021/12/26 01:48:42;;;;;;;4.55;1.70;;;;;;;;;;5013423;28;20056;-82
2021/12/26 01:51:08;;;;;;;3.47;1.90;;;;;;;;;;5013051;28;20584;-81
2021/12/26 01:53:37;;;;;;;3.72;1.80;;;;;;;;;;5009077;28;20037;-82
2021/12/26 01:56:06;;;;;;;2.72;1.98;;;;;;;;;;5023214;28;20056;-82
2021/12/26 01:58:32;;;;;;;6.45;2.38;;;;;;;;;;4998556;28;20041;-83
2021/12/26 02:01:00;;;;;;;4.05;2.15;;;;;;;;;;4993710;28;20619;-82
2021/12/26 02:03:30;;;;;;;3.92;2.20;;;;;;;;;;5017352;28;20587;-83
2021/12/26 02:05:56;;;;;;;3.20;2.03;;;;;;;;;;5016997;28;20110;-82
2021/12/26 02:08:23;;;;;;;7.15;2.67;;;;;;;;;;5010580;28;20576;-82
2021/12/26 02:10:49;;;;;;;4.45;2.42;;;;;;;;;;5006285;28;20120;-83
2021/12/26 02:13:15;;;;;;;3.75;2.60;;;;;;;;;;5010373;28;20115;-82
2021/12/26 02:15:41;;;;;;;5.55;2.45;;;;;;;;;;5013054;28;20426;-82
2021/12/26 02:18:08;;;;;;;4.85;2.40;;;;;;;;;;5014505;28;20128;-82
2021/12/26 02:20:45;;;;;;;4.57;2.75;;;;;;;;;;5014387;28;20045;-82
2021/12/26 02:28:38;;;;;;;4.93;2.42;;;;;;;;;;5006486;28;20100;-82
2021/12/26 02:31:04;;;;;;;3.85;2.10;;;;;;;;;;5019899;28;20042;-82
2021/12/26 02:33:30;;;;;;;5.57;2.90;;;;;;;;;;5019580;28;20037;-83
2021/12/26 02:35:56;;;;;;;5.30;2.60;;;;;;;;;;5019156;28;20646;-82
2021/12/26 02:38:23;;;;;;;8.20;2.83;;;;;;;;;;5022357;28;20052;-82
2021/12/26 02:40:50;;;;;;;4.03;2.30;;;;;;;;;;5009047;28;20046;-82
2021/12/26 02:43:20;;;;;;;6.45;2.75;;;;;;;;;;5011120;28;20050;-82
2021/12/26 02:45:47;;;;;;;3.30;2.03;;;;;;;;;;5015040;28;20048;-83
2021/12/26 02:48:13;;;;;;;5.32;2.53;;;;;;;;;;5011079;28;20044;-82
2021/12/26 02:50:40;;;;;;;6.53;2.53;;;;;;;;;;5013680;28;20520;-82
2021/12/26 02:53:07;;;;;;;5.47;2.00;;;;;;;;;;5008275;28;20045;-82
2021/12/26 02:55:34;;;;;;;3.15;2.35;;;;;;;;;;4995383;28;20042;-82
2021/12/26 02:58:01;;;;;;;5.18;2.22;;;;;;;;;;5011786;28;20061;-83
2021/12/26 03:00:29;;;;;;;6.00;2.17;;;;;;;;;;5017189;28;20045;-83
2021/12/26 03:02:56;;;;;;;2.38;1.90;;;;;;;;;;5015404;28;20045;-83
2021/12/26 03:05:24;;;;;;;2.83;2.00;;;;;;;;;;5022897;28;20049;-83
2021/12/26 03:07:50;;;;;;;3.17;1.90;;;;;;;;;;5023898;28;20030;-81
2021/12/26 03:10:22;;;;;;;2.90;1.73;;;;;;;;;;5015362;28;20048;-82
2021/12/26 03:12:52;;;;;;;3.85;2.03;;;;;;;;;;4996976;28;20046;-83
2021/12/26 03:15:18;;;;;;;5.80;2.25;;;;;;;;;;5020223;28;20049;-83
2021/12/26 03:17:44;;;;;;;8.50;2.30;;;;;;;;;;5017515;28;20054;-83
2021/12/26 03:20:11;;;;;;;3.72;1.88;;;;;;;;;;5017692;28;20038;-84
2021/12/26 03:22:38;;;;;;;2.25;1.73;;;;;;;;;;4990570;28;20045;-84
2021/12/26 03:25:05;;;;;;;3.35;1.88;;;;;;;;;;5020037;28;20045;-83
2021/12/26 03:27:31;;;;;;;4.05;1.80;;;;;;;;;;5023055;28;20053;-83
2021/12/26 03:29:57;;;;;;;2.25;1.63;;;;;;;;;;5021800;28;20045;-82
2021/12/26 03:32:23;;;;;;;2.08;1.70;;;;;;;;;;5007259;28;20608;-83
2021/12/26 03:34:50;;;;;;;3.00;1.55;;;;;;;;;;5015833;28;20041;-81
2021/12/26 03:37:16;;;;;;;2.70;1.83;;;;;;;;;;5008604;28;20037;-82
2021/12/26 03:39:43;;;;;;;2.65;1.73;;;;;;;;;;5001447;28;20494;-83
2021/12/26 03:42:09;;;;;;;4.18;1.50;;;;;;;;;;5006419;28;20050;-82
2021/12/26 03:44:35;;;;;;;4.57;2.00;;;;;;;;;;5011636;28;20713;-82
2021/12/26 03:47:01;;;;;;;6.35;2.38;;;;;;;;;;5017090;28;20116;-81
2021/12/26 03:49:27;;;;;;;3.17;2.17;;;;;;;;;;5014772;28;20561;-83
2021/12/26 03:51:53;;;;;;;4.88;2.13;;;;;;;;;;5006301;28;20042;-82
2021/12/26 03:54:19;;;;;;;3.22;1.92;;;;;;;;;;5006292;28;20077;-82
2021/12/26 03:56:46;;;;;;;4.60;2.08;;;;;;;;;;5012505;28;20048;-82
2021/12/26 03:59:12;;;;;;;6.00;2.17;;;;;;;;;;5018097;28;20034;-81
2021/12/26 04:01:38;;;;;;;3.13;2.35;;;;;;;;;;5009126;28;20048;-82
2021/12/26 04:04:04;;;;;;;4.75;2.53;;;;;;;;;;5011235;28;20069;-81
2021/12/26 04:06:30;;;;;;;7.57;2.45;;;;;;;;;;5006730;28;20390;-83
2021/12/26 04:08:56;;;;;;;4.97;2.47;;;;;;;;;;5013458;28;20056;-82
2021/12/26 04:11:23;;;;;;;6.55;2.47;;;;;;;;;;5009354;28;20042;-83
2021/12/26 04:13:49;;;;;;;4.78;2.53;;;;;;;;;;5009582;28;20118;-82
2021/12/26 04:16:16;;;;;;;3.35;2.40;;;;;;;;;;5007254;28;20064;-83
2021/12/26 04:18:42;;;;;;;3.10;2.20;;;;;;;;;;4996428;28;20188;-83
2021/12/26 04:21:08;;;;;;;6.30;2.30;;;;;;;;;;5012433;28;20038;-84
2021/12/26 04:23:35;;;;;;;6.22;2.35;;;;;;;;;;5005311;28;20364;-83
2021/12/26 04:26:01;;;;;;;3.28;2.25;;;;;;;;;;5017555;28;20144;-83
2021/12/26 04:28:27;;;;;;;5.30;2.83;;;;;;;;;;5002310;28;20057;-81
2021/12/26 04:30:53;;;;;;;6.00;2.35;;;;;;;;;;5009636;28;20046;-82
2021/12/26 04:33:20;;;;;;;3.90;2.30;;;;;;;;;;4995875;28;20129;-83
2021/12/26 04:35:46;;;;;;;4.80;2.25;;;;;;;;;;4989089;28;20042;-82
2021/12/26 04:38:12;;;;;;;5.03;2.50;;;;;;;;;;5003659;28;20050;-83
2021/12/26 04:40:38;;;;;;;4.57;1.92;;;;;;;;;;4997372;28;20136;-82
2021/12/26 04:43:04;;;;;;;4.25;2.10;;;;;;;;;;5000122;28;20042;-82
2021/12/26 04:45:30;;;;;;;4.15;2.05;;;;;;;;;;4992967;28;20503;-81
2021/12/26 04:48:01;;;;;;;7.35;2.45;;;;;;;;;;5010100;28;20832;-82
2021/12/26 04:50:28;;;;;;;3.50;2.30;;;;;;;;;;5019121;28;20064;-81
2021/12/26 04:52:55;;;;;;;4.45;2.45;;;;;;;;;;5014116;28;20100;-81
2021/12/26 04:55:22;;;;;;;6.53;2.65;;;;;;;;;;5016741;28;20073;-83
2021/12/26 04:57:49;;;;;;;4.50;2.22;;;;;;;;;;5007990;28;20050;-83
2021/12/26 05:00:16;;;;;;;3.08;2.10;;;;;;;;;;5005114;28;20061;-84
2021/12/26 05:02:43;;;;;;;5.28;2.28;;;;;;;;;;5007078;28;20030;-83
2021/12/26 05:05:10;;;;;;;3.75;1.92;;;;;;;;;;5005552;28;20042;-82
2021/12/26 05:07:37;;;;;;;4.82;2.40;;;;;;;;;;5014391;28;20402;-84
2021/12/26 05:10:04;;;;;;;3.83;2.58;;;;;;;;;;5015626;28;20108;-82
2021/12/26 05:12:30;;;;;;;3.47;1.85;;;;;;;;;;5000079;28;20038;-86
2021/12/26 05:14:56;;;;;;;3.90;2.10;;;;;;;;;;5012742;28;20030;-81
2021/12/26 05:17:22;;;;;;;5.47;2.20;;;;;;;;;;4994015;28;20049;-81
2021/12/26 05:19:48;;;;;;;5.53;2.33;;;;;;;;;;5000829;28;20076;-83
2021/12/26 05:22:14;;;;;;;3.17;2.38;;;;;;;;;;5004463;28;20104;-84
2021/12/26 05:24:40;;;;;;;4.65;2.20;;;;;;;;;;5001668;28;20053;-83
2021/12/26 05:27:06;;;;;;;4.15;2.00;;;;;;;;;;5007748;28;20042;-85
2021/12/26 05:29:32;;;;;;;5.22;2.80;;;;;;;;;;5005645;28;20461;-85
2021/12/26 05:31:58;;;;;;;4.18;2.60;;;;;;;;;;5016176;28;20436;-83
2021/12/26 05:34:25;;;;;;;3.90;2.60;;;;;;;;;;4989918;28;20042;-82
2021/12/26 05:36:51;;;;;;;3.70;2.03;;;;;;;;;;5021831;28;20042;-82
2021/12/26 05:39:17;;;;;;;4.55;2.33;;;;;;;;;;5004801;28;20511;-85
2021/12/26 05:41:43;;;;;;;6.15;2.08;;;;;;;;;;5012543;28;20049;-81
2021/12/26 05:44:09;;;;;;;3.05;1.70;;;;;;;;;;5014235;28;20532;-80
2021/12/26 05:46:37;;;;;;;6.28;1.77;;;;;;;;;;5013654;28;20050;-82
2021/12/26 05:49:03;;;;;;;4.55;2.30;;;;;;;;;;5003290;28;20121;-81
2021/12/26 05:51:29;;;;;;;4.10;2.03;;;;;;;;;;5004977;28;20038;-80
2021/12/26 05:53:55;;;;;;;4.05;1.95;;;;;;;;;;5003058;28;20502;-84
2021/12/26 05:56:21;;;;;;;2.47;1.77;;;;;;;;;;5005346;28;20494;-83
2021/12/26 05:58:47;;;;;;;4.30;2.40;;;;;;;;;;5003136;28;20265;-83
2021/12/26 06:01:13;;;;;;;7.45;2.20;;;;;;;;;;5011630;28;20577;-82
2021/12/26 06:03:40;;;;;;;5.00;2.47;;;;;;;;;;5021324;28;20095;-82
2021/12/26 06:06:06;;;;;;;3.42;2.30;;;;;;;;;;5013249;28;20137;-81
2021/12/26 06:08:32;;;;;;;5.45;2.45;;;;;;;;;;5020593;28;20034;-83
2021/12/26 06:10:58;;;;;;;8.15;2.70;;;;;;;;;;5008759;28;20136;-81
2021/12/26 06:13:24;;;;;;;6.30;2.53;;;;;;;;;;5016043;28;20045;-81
2021/12/26 06:15:51;;;;;;;5.55;2.50;;;;;;;;;;5007115;28;20054;-84
2021/12/26 06:18:17;;;;;;;5.47;2.40;;;;;;;;;;5007211;28;20045;-82
2021/12/26 06:20:43;;;;;;;5.15;2.80;;;;;;;;;;5006959;28;20124;-81
2021/12/26 06:23:09;;;;;;;4.75;2.22;;;;;;;;;;5007834;28;20490;-82
2021/12/26 06:25:35;;;;;;;6.40;2.63;;;;;;;;;;5008733;28;20041;-82
2021/12/26 06:28:02;;;;;;;6.18;2.78;;;;;;;;;;4999346;28;20058;-81
2021/12/26 06:30:28;;;;;;;5.25;2.55;;;;;;;;;;5003743;28;20053;-81
2021/12/26 06:32:54;;;;;;;5.80;2.83;;;;;;;;;;4990377;28;20730;-79
2021/12/26 06:35:20;;;;;;;4.38;2.60;;;;;;;;;;5022127;28;20053;-79
2021/12/26 06:37:46;;;;;;;3.50;2.70;;;;;;;;;;5020072;28;20077;-81
2021/12/26 06:40:13;;;;;;;4.38;2.67;;;;;;;;;;5007476;28;20033;-85
2021/12/26 06:42:42;;;;;;;3.60;2.50;;;;;;;;;;5026456;28;20049;-80
2021/12/26 06:45:09;;;;;;;3.15;2.30;;;;;;;;;;4991816;28;20054;-82
2021/12/26 06:47:36;;;;;;;5.88;2.63;;;;;;;;;;4997674;28;20086;-80
2021/12/26 06:50:02;;;;;;;3.33;2.22;;;;;;;;;;5010397;28;20045;-80
2021/12/26 06:52:28;;;;;;;3.72;2.72;;;;;;;;;;5010838;28;20521;-80
2021/12/26 06:54:54;;;;;;;4.55;2.90;;;;;;;;;;5005423;28;20854;-81
2021/12/26 06:57:20;;;;;;;4.28;2.75;;;;;;;;;;5005985;28;20044;-80
2021/12/26 06:59:46;;;;;;;4.72;2.47;;;;;;;;;;5007265;28;20053;-80
2021/12/26 07:02:12;;;;;;;4.93;2.45;;;;;;;;;;5007663;28;20072;-80
2021/12/26 07:04:38;;;;;;;4.32;2.38;;;;;;;;;;5008482;28;20422;-80
2021/12/26 07:07:05;;;;;;;4.72;2.63;;;;;;;;;;5005501;28;20099;-80
2021/12/26 07:09:31;;;;;;;6.60;2.85;;;;;;;;;;5006693;28;20041;-80
2021/12/26 07:11:57;;;;;;;5.60;3.30;;;;;;;;;;5017710;28;20038;-80
2021/12/26 07:14:23;;;;;;;11.52;2.83;;;;;;;;;;5006793;28;20041;-80
2021/12/26 07:16:49;;;;;;;5.57;2.75;;;;;;;;;;5017772;28;20157;-80
2021/12/26 07:19:15;;;;;;;4.78;2.85;;;;;;;;;;5004153;28;20717;-81
2021/12/26 07:21:41;;;;;;;4.88;2.42;;;;;;;;;;5004919;28;20057;-80
2021/12/26 07:24:07;;;;;;;5.65;2.85;;;;;;;;;;5006878;28;20107;-80
2021/12/26 07:26:33;;;;;;;4.75;2.70;;;;;;;;;;5009915;28;20090;-80
2021/12/26 07:28:59;;;;;;;5.90;2.90;;;;;;;;;;4990502;28;20058;-80
2021/12/26 07:31:26;;;;;;;3.85;2.55;;;;;;;;;;5008238;28;20042;-78
2021/12/26 07:33:52;;;;;;;4.47;2.85;;;;;;;;;;5008334;28;20461;-80
2021/12/26 07:36:18;;;;;;;5.10;2.75;;;;;;;;;;5011202;28;20068;-82
2021/12/26 07:38:51;;;;;;;3.38;2.40;;;;;;;;;;5013497;28;20045;-79
2021/12/26 07:41:17;;;;;;;3.30;2.30;;;;;;;;;;5010352;28;20111;-80
2021/12/26 07:43:43;;;;;;;6.28;2.58;;;;;;;;;;5008968;28;20516;-79
2021/12/26 07:46:09;;;;;;;5.38;2.50;;;;;;;;;;5017534;28;20508;-80
2021/12/26 07:48:35;;;;;;;11.18;2.90;;;;;;;;;;5010525;28;20099;-81
2021/12/26 07:51:04;;;;;;;7.05;3.47;;;;;;;;;;5011340;28;20033;-80
2021/12/26 07:53:30;;;;;;;4.07;2.63;;;;;;;;;;5005849;28;20129;-81
2021/12/26 07:55:56;;;;;;;4.72;2.92;;;;;;;;;;5007647;28;20084;-80
2021/12/26 07:58:22;;;;;;;4.85;3.30;;;;;;;;;;5007592;28;20053;-81
2021/12/26 08:00:48;;;;;;;5.28;3.13;;;;;;;;;;5006368;28;20053;-80
2021/12/26 08:03:14;;;;;;;4.40;2.80;;;;;;;;;;5012168;28;20042;-81
2021/12/26 08:05:41;;;;;;;3.78;2.55;;;;;;;;;;5006660;28;20096;-81
2021/12/26 08:08:07;;;;;;;5.20;2.97;;;;;;;;;;5007293;28;20513;-79
2021/12/26 08:10:33;;;;;;;5.93;3.15;;;;;;;;;;5011860;28;20042;-80
2021/12/26 08:12:59;;;;;;;4.35;2.40;;;;;;;;;;4996507;28;20088;-80
2021/12/26 08:15:25;;;;;;;4.35;3.15;;;;;;;;;;5003389;28;20041;-80
2021/12/26 08:17:51;;;;;;;3.78;2.47;;;;;;;;;;4999127;28;20791;-80
2021/12/26 08:20:17;;;;;;;6.35;2.78;;;;;;;;;;5005587;28;20077;-81
2021/12/26 08:22:43;;;;;;;4.93;2.92;;;;;;;;;;5004519;28;20501;-78
2021/12/26 08:25:09;;;;;;;4.75;2.80;;;;;;;;;;5003686;28;20034;-78
2021/12/26 08:27:36;;;;;;;5.65;3.00;;;;;;;;;;5004505;28;20065;-78
2021/12/26 08:30:03;;;;;;;3.65;2.47;;;;;;;;;;5010089;28;20075;-79
2021/12/26 08:32:31;;;;;;;6.13;2.92;;;;;;;;;;5012827;28;20112;-80
2021/12/26 08:35:00;;;;;;;5.50;3.10;;;;;;;;;;4998240;28;20083;-80
2021/12/26 08:37:27;;;;;;;6.05;2.58;;;;;;;;;;5013218;28;20333;-78
2021/12/26 08:39:53;;;;;;;4.88;2.67;;;;;;;;;;5011027;28;20095;-79
2021/12/26 08:42:19;;;;;;;5.05;2.75;;;;;;;;;;5017260;28;20037;-79
2021/12/26 08:44:45;;;;;;;5.00;3.13;;;;;;;;;;5014805;28;20167;-77
2021/12/26 08:47:12;;;;;;;4.70;2.95;;;;;;;;;;5019935;28;20076;-79
2021/12/26 08:49:38;;;;;;;4.65;3.00;;;;;;;;;;5013883;28;20856;-77
2021/12/26 08:52:06;;;;;;;5.65;2.90;;;;;;;;;;4991539;28;20494;-78
2021/12/26 08:54:33;;;;;;;5.20;3.03;;;;;;;;;;4980340;28;20034;-81
2021/12/26 08:57:00;;;;;;;5.10;3.05;;;;;;;;;;5015516;28;20070;-79
2021/12/26 08:59:30;;;;;;;4.97;3.13;;;;;;;;;;5004132;28;20049;-80
2021/12/26 09:01:56;;;;;;;4.40;3.10;;;;;;;;;;4995775;28;20099;-79
2021/12/26 09:04:22;;;;;;;6.28;3.20;;;;;;;;;;5008500;28;20080;-78
2021/12/26 09:06:48;;;;;;;8.23;2.97;;;;;;;;;;5019313;28;20103;-79
2021/12/26 09:09:14;;;;;;;7.47;2.88;;;;;;;;;;5010927;28;20307;-82
2021/12/26 09:11:40;;;;;;;6.80;3.35;;;;;;;;;;5023879;28;20460;-80
2021/12/26 09:14:06;;;;;;;4.20;3.05;;;;;;;;;;5010413;28;20042;-77
2021/12/26 09:16:33;;;;;;;8.30;3.03;;;;;;;;;;5006689;28;20397;-78
2021/12/26 09:19:00;;;;;;;5.25;3.20;;;;;;;;;;5000266;28;20104;-81
2021/12/26 09:21:26;;;;;;;8.65;3.15;;;;;;;;;;5015421;28;20037;-81
2021/12/26 09:23:52;;;;;;;3.83;2.50;;;;;;;;;;5018695;28;20167;-78
2021/12/26 09:26:18;;;;;;;3.33;2.80;;;;;;;;;;5012953;28;20081;-78
2021/12/26 09:28:44;;;;;;;4.65;3.05;;;;;;;;;;5013778;28;20375;-81
2021/12/26 09:31:10;;;;;;;6.63;4.03;;;;;;;;;;5016074;28;20046;-77
2021/12/26 09:33:36;;;;;;;7.80;4.45;;;;;;;;;;5012847;28;20133;-76
2021/12/26 09:36:03;;;;;;;5.88;3.05;;;;;;;;;;5011790;28;20137;-79
2021/12/26 09:38:29;;;;;;;8.73;3.40;;;;;;;;;;5012596;28;20330;-79
2021/12/26 09:40:55;;;;;;;6.10;2.78;;;;;;;;;;5017092;28;20065;-77
2021/12/26 09:43:22;;;;;;;5.97;2.97;;;;;;;;;;5022587;28;20049;-77
2021/12/26 09:45:48;;;;;;;4.45;3.10;;;;;;;;;;4996403;28;20053;-78
2021/12/26 09:48:14;;;;;;;4.00;2.90;;;;;;;;;;5014475;28;20394;-79
2021/12/26 09:50:40;;;;;;;6.32;2.95;;;;;;;;;;5020498;28;20057;-78
2021/12/26 09:53:06;;;;;;;6.45;3.35;;;;;;;;;;5016857;28;20140;-78
2021/12/26 09:55:32;;;;;;;3.53;2.38;;;;;;;;;;5007658;28;20053;-79
2021/12/26 09:57:58;;;;;;;8.77;3.67;;;;;;;;;;5011755;28;20037;-81
2021/12/26 10:00:30;;;;;;;4.30;3.15;;;;;;;;;;5019824;28;20089;-81
2021/12/26 10:03:15;;;;;;;5.95;3.10;;;;;;;;;;5013140;28;20387;-77
2021/12/26 10:05:59;;;;;;;4.63;3.20;;;;;;;;;;5007031;28;20053;-78
2021/12/26 10:08:26;;;;;;;5.10;3.05;;;;;;;;;;5003790;28;20042;-78
2021/12/26 10:11:13;;;;;;;5.30;3.05;;;;;;;;;;4985880;28;20038;-78
2021/12/26 10:13:56;;;;;;;6.72;3.58;;;;;;;;;;5004088;28;20531;-78
2021/12/26 10:16:23;;;;;;;5.80;2.90;;;;;;;;;;4999092;28;20077;-78
2021/12/26 10:18:50;;;;;;;5.13;2.92;;;;;;;;;;5019718;28;20038;-78
2021/12/26 10:21:26;;;;;;;4.75;3.40;;;;;;;;;;5004360;28;20037;-79
2021/12/26 10:23:53;;;;;;;5.10;3.10;;;;;;;;;;4988428;28;20506;-79
2021/12/26 10:26:23;;;;;;;7.25;3.60;;;;;;;;;;4991049;28;20436;-79
2021/12/26 10:29:06;;;;;;;5.30;3.30;;;;;;;;;;5001220;28;20158;-80
2021/12/26 10:31:32;;;;;;;4.43;3.28;;;;;;;;;;4996132;28;20049;-79
2021/12/26 10:33:58;;;;;;;10.07;5.28;;;;;;;;;;5000667;28;20759;-81
2021/12/26 10:36:24;;;;;;;7.68;3.38;;;;;;;;;;4990754;28;20517;-81
2021/12/26 10:39:20;;;;;;;4.50;3.40;;;;;;;;;;5019983;28;20445;-83
2021/12/26 10:41:51;;;;;;;5.05;3.00;;;;;;;;;;4988715;28;20061;-78
2021/12/26 10:44:21;;;;;;;5.30;2.63;;;;;;;;;;5000303;28;20123;-82
2021/12/26 10:46:48;;;;;;;6.20;3.03;;;;;;;;;;5002995;28;20121;-80
2021/12/26 10:49:25;;;;;;;4.03;2.67;;;;;;;;;;5006033;28;20033;-78
2021/12/26 10:51:51;;;;;;;4.38;3.60;;;;;;;;;;5018069;28;20228;-80
2021/12/26 10:54:19;;;;;;;6.10;2.45;;;;;;;;;;5010837;28;20522;-81
2021/12/26 10:57:04;;;;;;;3.90;2.47;;;;;;;;;;5025027;28;20045;-81
2021/12/26 10:59:30;;;;;;;3.38;2.60;;;;;;;;;;5010039;28;20054;-81
2021/12/26 11:01:56;;;;;;;4.32;2.78;;;;;;;;;;5002690;28;20046;-78
2021/12/26 11:04:24;;;;;;;7.90;3.03;;;;;;;;;;5008433;28;20041;-82
2021/12/26 11:07:00;;;;;;;3.40;2.55;;;;;;;;;;5004896;28;20053;-80
2021/12/26 11:09:26;;;;;;;4.93;2.83;;;;;;;;;;5004949;28;20494;-79
2021/12/26 11:12:02;;;;;;;4.85;2.65;;;;;;;;;;5006261;28;20050;-79
2021/12/26 11:14:28;;;;;;;5.65;2.85;;;;;;;;;;4998308;28;20069;-78
2021/12/26 11:16:54;;;;;;;3.40;2.65;;;;;;;;;;5000161;28;20105;-78
2021/12/26 11:19:41;;;;;;;4.70;2.55;;;;;;;;;;5008971;28;20042;-81
2021/12/26 11:22:07;;;;;;;3.35;2.28;;;;;;;;;;5003042;28;20045;-81
2021/12/26 11:24:33;;;;;;;4.60;2.92;;;;;;;;;;5005426;28;20556;-82
2021/12/26 11:26:59;;;;;;;4.22;2.72;;;;;;;;;;5002528;28;20388;-80
2021/12/26 11:29:26;;;;;;;3.53;2.78;;;;;;;;;;5002735;28;20054;-82
2021/12/26 11:31:54;;;;;;;3.28;2.60;;;;;;;;;;4999706;28;20034;-81
2021/12/26 11:34:20;;;;;;;4.43;2.83;;;;;;;;;;5010568;28;20049;-81
2021/12/26 11:36:49;;;;;;;5.38;2.75;;;;;;;;;;5013335;28;20045;-80
2021/12/26 11:39:16;;;;;;;4.00;2.53;;;;;;;;;;5013017;28;20065;-82
2021/12/26 11:41:49;;;;;;;7.93;4.20;;;;;;;;;;5021978;28;20034;-81
2021/12/26 11:44:23;;;;;;;5.68;3.72;;;;;;;;;;5018911;28;21233;-81
2021/12/26 11:46:50;;;;;;;5.68;2.53;;;;;;;;;;5016568;28;21024;-81
2021/12/26 11:49:24;;;;;;;6.25;3.33;;;;;;;;;;5012038;28;20045;-82
2021/12/26 11:51:56;;;;;;;4.70;2.45;;;;;;;;;;5017272;28;20053;-82
2021/12/26 11:54:22;;;;;;;4.78;2.60;;;;;;;;;;5016679;28;20092;-82
2021/12/26 11:56:57;;;;;;;3.90;2.63;;;;;;;;;;5012954;28;20045;-80
2021/12/26 11:59:47;;;;;;;3.40;2.67;;;;;;;;;;5017327;28;20556;-81
2021/12/26 12:02:33;;;;;;;3.75;2.65;;;;;;;;;;5006849;28;20053;-82
2021/12/26 12:05:09;;;;;;;6.05;2.50;;;;;;;;;;5008219;28;20386;-81
2021/12/26 12:07:46;;;;;;;6.63;3.08;;;;;;;;;;5017885;28;20076;-82
2021/12/26 12:10:30;;;;;;;4.28;2.83;;;;;;;;;;5016951;28;20156;-81
2021/12/26 12:12:56;;;;;;;6.47;2.65;;;;;;;;;;5012642;28;20065;-82
2021/12/26 12:15:41;;;;;;;5.65;3.10;;;;;;;;;;5017921;28;20042;-83
2021/12/26 12:18:09;;;;;;;4.00;2.67;;;;;;;;;;5007720;28;20397;-83
2021/12/26 12:20:35;;;;;;;4.22;2.90;;;;;;;;;;5013780;28;20092;-82
2021/12/26 12:23:07;;;;;;;4.00;3.05;;;;;;;;;;5021321;28;20052;-83
2021/12/26 12:25:38;;;;;;;3.88;2.90;;;;;;;;;;4993414;28;20037;-82
2021/12/26 12:28:14;;;;;;;5.18;3.28;;;;;;;;;;5024517;28;20135;-84
2021/12/26 12:30:45;;;;;;;5.32;3.95;;;;;;;;;;5013800;28;20050;-83
2021/12/26 12:33:19;;;;;;;5.03;3.38;;;;;;;;;;5016467;28;20127;-84
2021/12/26 12:35:54;;;;;;;6.15;3.30;;;;;;;;;;5009821;28;20620;-84
2021/12/26 12:38:24;;;;;;;5.07;2.95;;;;;;;;;;5014091;28;20148;-86
2021/12/26 12:40:51;;;;;;;4.32;3.40;;;;;;;;;;5012219;28;20085;-86
2021/12/26 12:43:18;;;;;;;4.18;3.00;;;;;;;;;;5013050;28;20038;-84
2021/12/26 12:45:58;;;;;;;4.63;2.60;;;;;;;;;;5018140;28;20083;-84
2021/12/26 12:48:25;;;;;;;4.13;2.83;;;;;;;;;;5015544;28;20040;-84
2021/12/26 12:50:54;;;;;;;3.45;2.42;;;;;;;;;;5013256;28;20053;-83
2021/12/26 12:53:35;;;;;;;3.85;2.58;;;;;;;;;;5005793;28;20037;-86
2021/12/26 12:56:01;;;;;;;3.75;2.80;;;;;;;;;;5018662;28;20044;-84
2021/12/26 12:58:36;;;;;;;8.63;3.15;;;;;;;;;;5010744;28;20061;-85
2021/12/26 13:01:03;;;;;;;6.72;3.33;;;;;;;;;;5011850;28;20053;-83
2021/12/26 13:03:31;;;;;;;3.38;2.90;;;;;;;;;;5010360;28;20037;-83
2021/12/26 13:06:08;;;;;;;5.32;3.00;;;;;;;;;;5011553;28;20042;-83
2021/12/26 13:08:34;;;;;;;5.88;3.03;;;;;;;;;;5011002;28;20045;-83
2021/12/26 13:11:09;;;;;;;5.22;2.40;;;;;;;;;;5013193;28;20465;-84
2021/12/26 13:13:39;;;;;;;4.28;2.42;;;;;;;;;;5016613;28;20037;-83
2021/12/26 13:16:06;;;;;;;4.88;2.67;;;;;;;;;;5016705;28;20095;-83
2021/12/26 13:18:34;;;;;;;4.78;2.72;;;;;;;;;;5023249;28;20045;-84
2021/12/26 13:21:02;;;;;;;4.32;2.88;;;;;;;;;;5014298;28;20072;-86
2021/12/26 13:23:28;;;;;;;5.53;2.90;;;;;;;;;;5025196;28;20034;-86
2021/12/26 13:25:56;;;;;;;4.07;2.75;;;;;;;;;;5006784;28;20048;-85
2021/12/26 13:28:26;;;;;;;4.03;2.75;;;;;;;;;;5021540;28;20076;-85
2021/12/26 13:30:55;;;;;;;6.75;3.08;;;;;;;;;;5019958;28;20053;-84
2021/12/26 13:33:41;;;;;;;5.45;2.80;;;;;;;;;;5017032;28;20038;-85
2021/12/26 13:36:19;;;;;;;5.97;2.92;;;;;;;;;;5023593;28;20034;-85
2021/12/26 13:38:45;;;;;;;5.80;3.08;;;;;;;;;;5016891;28;20461;-82
2021/12/26 13:41:12;;;;;;;5.85;3.00;;;;;;;;;;5017428;28;20054;-84
2021/12/26 13:43:41;;;;;;;6.07;3.40;;;;;;;;;;5014963;28;20486;-83
2021/12/26 13:46:08;;;;;;;3.33;2.50;;;;;;;;;;5011721;28;20050;-84
2021/12/26 13:48:35;;;;;;;4.18;2.67;;;;;;;;;;5000864;28;20049;-86
2021/12/26 13:51:20;;;;;;;6.00;3.08;;;;;;;;;;5022196;28;20128;-83
2021/12/26 13:53:47;;;;;;;6.03;3.22;;;;;;;;;;5020158;28;20553;-85
2021/12/26 13:56:13;;;;;;;5.90;2.90;;;;;;;;;;5021868;28;20505;-85
2021/12/26 13:58:40;;;;;;;5.10;2.90;;;;;;;;;;5023243;28;20552;-85
2021/12/26 14:01:07;;;;;;;5.45;2.70;;;;;;;;;;5010828;28;20038;-85
2021/12/26 14:03:33;;;;;;;4.85;2.75;;;;;;;;;;4998934;28;20046;-86
2021/12/26 14:05:59;;;;;;;5.93;3.55;;;;;;;;;;4996344;28;20128;-87
2021/12/26 14:08:30;;;;;;;3.90;2.65;;;;;;;;;;5017137;28;20042;-85
2021/12/26 14:11:06;;;;;;;3.97;2.83;;;;;;;;;;5010514;28;20057;-85
2021/12/26 14:13:44;;;;;;;5.80;3.00;;;;;;;;;;5013726;28;20086;-85
2021/12/26 14:16:10;;;;;;;4.35;3.38;;;;;;;;;;5017110;28;20053;-84
2021/12/26 14:18:41;;;;;;;4.72;3.38;;;;;;;;;;5017287;28;20468;-83
2021/12/26 14:21:11;;;;;;;12.32;4.78;;;;;;;;;;4999704;28;20034;-84
2021/12/26 14:23:41;;;;;;;4.60;2.90;;;;;;;;;;5029284;28;20079;-83
2021/12/26 14:26:07;;;;;;;5.38;2.95;;;;;;;;;;5014724;28;20049;-84
2021/12/26 14:28:38;;;;;;;6.80;2.65;;;;;;;;;;5002986;28;20053;-83
2021/12/26 14:31:04;;;;;;;5.55;3.60;;;;;;;;;;4989435;28;20039;-83
2021/12/26 14:33:46;;;;;;;4.30;2.95;;;;;;;;;;4999596;28;20413;-83
2021/12/26 14:36:12;;;;;;;9.38;2.95;;;;;;;;;;4972329;28;20057;-84
2021/12/26 14:38:38;;;;;;;7.55;3.95;;;;;;;;;;4987886;28;20045;-83
2021/12/26 14:41:08;;;;;;;5.35;2.85;;;;;;;;;;4989175;28;20514;-83
2021/12/26 14:43:35;;;;;;;5.90;3.25;;;;;;;;;;4967927;28;20058;-82
2021/12/26 14:46:05;;;;;;;4.22;3.00;;;;;;;;;;4969646;28;20568;-83
2021/12/26 14:48:41;;;;;;;5.15;2.97;;;;;;;;;;4968900;28;20062;-82
2021/12/26 14:51:09;;;;;;;4.38;3.30;;;;;;;;;;4952037;28;20058;-83
2021/12/26 14:53:36;;;;;;;5.40;3.10;;;;;;;;;;4967508;28;20062;-83